createdAt,value
2018-03-12T00:00:56.915Z,973.1
2018-03-12T00:01:57.573Z,973.1
2018-03-12T00:02:58.278Z,973.1
2018-03-12T00:03:58.932Z,973.1
2018-03-12T00:04:59.586Z,973.1
2018-03-12T00:06:00.290Z,973.1
2018-03-12T00:07:00.946Z,973.1
2018-03-12T00:08:01.638Z,973.0
2018-03-12T00:09:02.293Z,973.0
2018-03-12T00:10:02.948Z,972.9
2018-03-12T00:11:03.605Z,973.0
2018-03-12T00:12:04.260Z,973.0
2018-03-12T00:13:04.918Z,973.0
2018-03-12T00:14:05.607Z,972.9
2018-03-12T00:15:06.264Z,972.9
2018-03-12T00:16:06.918Z,972.9
2018-03-12T00:17:07.573Z,973.0
2018-03-12T00:18:08.229Z,973.0
2018-03-12T00:19:08.919Z,973.0
2018-03-12T00:20:09.577Z,973.0
2018-03-12T00:21:10.229Z,973.0
2018-03-12T00:22:10.885Z,973.0
2018-03-12T00:23:11.538Z,973.0
2018-03-12T00:24:12.194Z,973.0
2018-03-12T00:25:12.899Z,973.0
2018-03-12T00:26:13.556Z,973.0
2018-03-12T00:27:14.209Z,973.0
2018-03-12T00:28:14.915Z,973.0
2018-03-12T00:29:15.571Z,973.0
2018-03-12T00:30:16.226Z,973.0
2018-03-12T00:31:16.881Z,973.0
2018-03-12T00:32:17.586Z,973.0
2018-03-12T00:33:18.334Z,973.0
2018-03-12T00:34:18.898Z,973.0
2018-03-12T00:35:19.555Z,973.0
2018-03-12T00:36:20.208Z,972.9
2018-03-12T00:37:20.862Z,972.9
2018-03-12T00:38:21.516Z,972.9
2018-03-12T00:39:22.211Z,972.9
2018-03-12T00:40:22.915Z,972.9
2018-03-12T00:41:23.568Z,972.9
2018-03-12T00:42:24.273Z,972.9
2018-03-12T00:43:24.928Z,972.9
2018-03-12T00:44:25.601Z,972.9
2018-03-12T00:45:26.238Z,972.9
2018-03-12T00:46:26.892Z,972.9
2018-03-12T00:47:27.598Z,972.9
2018-03-12T00:48:28.253Z,972.8
2018-03-12T00:49:28.909Z,972.8
2018-03-12T00:50:29.563Z,972.8
2018-03-12T00:51:30.219Z,972.7
2018-03-12T00:52:30.871Z,972.7
2018-03-12T00:53:31.527Z,972.7
2018-03-12T00:54:32.180Z,972.7
2018-03-12T00:55:32.836Z,972.7
2018-03-12T00:56:33.538Z,972.7
2018-03-12T00:57:34.242Z,972.7
2018-03-12T00:58:34.900Z,972.6
2018-03-12T00:59:35.554Z,972.6
2018-03-12T01:00:36.210Z,972.6
2018-03-12T01:01:36.863Z,972.5
2018-03-12T01:02:37.520Z,972.5
2018-03-12T01:03:38.174Z,972.5
2018-03-12T01:04:38.829Z,972.4
2018-03-12T01:05:39.532Z,972.5
2018-03-12T01:06:40.187Z,972.4
2018-03-12T01:07:40.845Z,972.4
2018-03-12T01:08:41.537Z,972.5
2018-03-12T01:09:42.192Z,972.5
2018-03-12T01:10:42.847Z,972.4
2018-03-12T01:11:43.501Z,972.4
2018-03-12T01:12:44.156Z,972.5
2018-03-12T01:13:44.812Z,972.5
2018-03-12T01:14:45.465Z,972.4
2018-03-12T01:15:46.120Z,972.4
2018-03-12T01:16:46.773Z,972.5
2018-03-12T01:17:47.428Z,972.5
2018-03-12T01:18:48.083Z,972.3
2018-03-12T01:19:48.738Z,972.4
2018-03-12T01:20:49.394Z,972.4
2018-03-12T01:21:50.050Z,972.4
2018-03-12T01:22:50.705Z,972.4
2018-03-12T01:23:51.358Z,972.4
2018-03-12T01:24:52.012Z,972.4
2018-03-12T01:25:52.666Z,972.3
2018-03-12T01:26:53.399Z,972.3
2018-03-12T01:27:54.028Z,972.3
2018-03-12T01:28:54.731Z,972.3
2018-03-12T01:29:55.386Z,972.3
2018-03-12T01:30:56.042Z,972.3
2018-03-12T01:31:56.697Z,972.3
2018-03-12T01:32:57.353Z,972.3
2018-03-12T01:33:58.007Z,972.3
2018-03-12T01:34:58.662Z,972.3
2018-03-12T01:35:59.366Z,972.2
2018-03-12T01:37:00.022Z,972.2
2018-03-12T01:38:00.674Z,972.2
2018-03-12T01:39:01.328Z,972.2
2018-03-12T01:40:01.983Z,972.2
2018-03-12T01:41:02.639Z,972.2
2018-03-12T01:42:03.293Z,972.2
2018-03-12T01:43:03.947Z,972.2
2018-03-12T01:44:04.640Z,972.2
2018-03-12T01:45:05.346Z,972.2
2018-03-12T01:46:06.086Z,972.2
2018-03-12T01:47:06.793Z,972.2
2018-03-12T01:48:07.447Z,972.2
2018-03-12T01:49:08.100Z,972.2
2018-03-12T01:50:08.756Z,972.2
2018-03-12T01:51:09.410Z,972.2
2018-03-12T01:52:10.064Z,972.2
2018-03-12T01:53:10.718Z,972.2
2018-03-12T01:54:11.373Z,972.2
2018-03-12T01:55:12.027Z,972.2
2018-03-12T01:56:12.681Z,972.2
2018-03-12T01:57:13.336Z,972.2
2018-03-12T01:58:14.045Z,972.2
2018-03-12T01:59:14.699Z,972.1
2018-03-12T02:00:15.353Z,972.1
2018-03-12T02:01:16.007Z,972.1
2018-03-12T02:02:16.701Z,972.1
2018-03-12T02:03:17.406Z,972.1
2018-03-12T02:04:18.060Z,972.1
2018-03-12T02:05:18.717Z,972.1
2018-03-12T02:06:19.369Z,972.1
2018-03-12T02:07:20.028Z,972.1
2018-03-12T02:08:20.728Z,972.1
2018-03-12T02:09:21.382Z,972.1
2018-03-12T02:10:22.039Z,972.1
2018-03-12T02:11:22.691Z,972.0
2018-03-12T02:12:23.347Z,972.0
2018-03-12T02:13:24.052Z,972.0
2018-03-12T02:14:24.705Z,972.0
2018-03-12T02:15:25.360Z,972.0
2018-03-12T02:16:26.015Z,972.0
2018-03-12T02:17:26.669Z,972.0
2018-03-12T02:18:27.323Z,972.0
2018-03-12T02:19:27.978Z,972.0
2018-03-12T02:20:28.719Z,972.0
2018-03-12T02:21:29.375Z,972.0
2018-03-12T02:22:30.078Z,972.0
2018-03-12T02:23:30.732Z,972.0
2018-03-12T02:24:31.385Z,972.0
2018-03-12T02:25:32.042Z,971.9
2018-03-12T02:26:32.695Z,971.9
2018-03-12T02:27:33.349Z,971.9
2018-03-12T02:28:34.004Z,971.9
2018-03-12T02:29:34.660Z,971.9
2018-03-12T02:30:35.311Z,971.9
2018-03-12T02:31:35.965Z,971.9
2018-03-12T02:32:36.618Z,971.9
2018-03-12T02:33:37.281Z,971.9
2018-03-12T02:34:37.964Z,971.9
2018-03-12T02:35:38.623Z,971.9
2018-03-12T02:36:39.274Z,971.9
2018-03-12T02:37:39.929Z,971.9
2018-03-12T02:38:40.631Z,971.9
2018-03-12T02:39:41.286Z,971.9
2018-03-12T02:40:41.939Z,971.9
2018-03-12T02:41:42.598Z,971.9
2018-03-12T02:42:43.286Z,971.9
2018-03-12T02:43:43.940Z,971.9
2018-03-12T02:44:44.594Z,971.9
2018-03-12T02:45:45.247Z,971.9
2018-03-12T02:46:45.987Z,971.8
2018-03-12T02:47:46.692Z,971.8
2018-03-12T02:48:47.346Z,971.9
2018-03-12T02:49:48.009Z,971.9
2018-03-12T02:50:48.660Z,971.8
2018-03-12T02:51:49.313Z,971.9
2018-03-12T02:52:50.005Z,971.9
2018-03-12T02:53:50.661Z,971.9
2018-03-12T02:54:51.363Z,971.9
2018-03-12T02:55:52.017Z,971.9
2018-03-12T02:56:52.674Z,971.9
2018-03-12T02:57:53.326Z,971.8
2018-03-12T02:58:53.983Z,971.8
2018-03-12T02:59:54.637Z,971.9
2018-03-12T03:00:55.343Z,971.8
2018-03-12T03:01:56.001Z,971.8
2018-03-12T03:02:56.654Z,971.8
2018-03-12T03:03:57.311Z,971.8
2018-03-12T03:04:57.966Z,971.8
2018-03-12T03:05:58.659Z,971.9
2018-03-12T03:06:59.311Z,971.8
2018-03-12T03:07:59.968Z,971.9
2018-03-12T03:09:00.626Z,971.8
2018-03-12T03:10:01.312Z,971.9
2018-03-12T03:11:02.069Z,971.8
2018-03-12T03:12:02.723Z,971.9
2018-03-12T03:13:03.378Z,971.8
2018-03-12T03:14:04.036Z,971.9
2018-03-12T03:15:04.738Z,971.9
2018-03-12T03:16:05.430Z,971.9
2018-03-12T03:17:06.135Z,971.9
2018-03-12T03:18:06.794Z,971.8
2018-03-12T03:19:07.483Z,971.8
2018-03-12T03:20:08.139Z,971.8
2018-03-12T03:21:08.804Z,971.8
2018-03-12T03:22:09.449Z,971.8
2018-03-12T03:23:10.105Z,971.8
2018-03-12T03:24:10.759Z,971.8
2018-03-12T03:25:11.414Z,971.9
2018-03-12T03:26:12.071Z,971.9
2018-03-12T03:27:12.728Z,971.9
2018-03-12T03:28:13.418Z,971.9
2018-03-12T03:29:14.124Z,971.9
2018-03-12T03:30:14.831Z,971.9
2018-03-12T03:31:15.435Z,971.9
2018-03-12T03:32:16.089Z,971.9
2018-03-12T03:33:16.795Z,971.9
2018-03-12T03:34:17.450Z,971.9
2018-03-12T03:35:18.105Z,971.9
2018-03-12T03:36:18.763Z,971.9
2018-03-12T03:37:19.454Z,971.9
2018-03-12T03:38:20.145Z,971.9
2018-03-12T03:39:20.850Z,971.9
2018-03-12T03:40:21.558Z,971.9
2018-03-12T03:41:22.214Z,971.9
2018-03-12T03:42:22.918Z,971.9
2018-03-12T03:43:23.573Z,971.9
2018-03-12T03:44:24.229Z,971.9
2018-03-12T03:45:24.886Z,972.0
2018-03-12T03:46:25.540Z,971.9
2018-03-12T03:47:26.244Z,971.9
2018-03-12T03:48:26.900Z,971.9
2018-03-12T03:49:27.554Z,971.9
2018-03-12T03:50:28.208Z,971.9
2018-03-12T03:51:28.865Z,971.9
2018-03-12T03:52:29.569Z,971.9
2018-03-12T03:53:30.272Z,971.9
2018-03-12T03:54:30.928Z,971.9
2018-03-12T03:55:31.589Z,971.9
2018-03-12T03:56:32.236Z,971.9
2018-03-12T03:57:32.894Z,971.9
2018-03-12T03:58:33.547Z,971.9
2018-03-12T03:59:34.203Z,971.9
2018-03-12T04:00:34.860Z,971.9
2018-03-12T04:01:35.550Z,971.9
2018-03-12T04:02:36.203Z,971.9
2018-03-12T04:03:36.860Z,971.9
2018-03-12T04:04:37.514Z,971.9
2018-03-12T04:05:38.171Z,971.9
2018-03-12T04:06:38.832Z,971.9
2018-03-12T04:07:39.518Z,971.9
2018-03-12T04:08:40.173Z,971.9
2018-03-12T04:09:40.827Z,971.9
2018-03-12T04:10:41.482Z,971.9
2018-03-12T04:11:42.137Z,971.9
2018-03-12T04:12:42.790Z,971.8
2018-03-12T04:13:43.452Z,971.9
2018-03-12T04:14:44.151Z,971.9
2018-03-12T04:15:44.856Z,971.9
2018-03-12T04:16:45.511Z,971.9
2018-03-12T04:17:46.167Z,971.9
2018-03-12T04:18:46.873Z,971.9
2018-03-12T04:19:47.528Z,971.9
2018-03-12T04:20:48.185Z,971.9
2018-03-12T04:21:48.840Z,971.9
2018-03-12T04:22:49.498Z,971.9
2018-03-12T04:23:50.150Z,971.9
2018-03-12T04:24:50.806Z,971.9
2018-03-12T04:25:51.461Z,971.9
2018-03-12T04:26:52.116Z,971.9
2018-03-12T04:27:52.771Z,971.9
2018-03-12T04:28:53.425Z,971.9
2018-03-12T04:29:54.083Z,971.8
2018-03-12T04:30:54.736Z,971.8
2018-03-12T04:31:55.393Z,971.8
2018-03-12T04:32:56.047Z,971.8
2018-03-12T04:33:56.704Z,971.8
2018-03-12T04:34:57.357Z,971.8
2018-03-12T04:35:58.013Z,971.8
2018-03-12T04:36:58.705Z,971.8
2018-03-12T04:37:59.362Z,971.8
2018-03-12T04:39:00.024Z,971.7
2018-03-12T04:40:00.672Z,971.7
2018-03-12T04:41:01.325Z,971.8
2018-03-12T04:42:01.982Z,971.8
2018-03-12T04:43:02.637Z,971.8
2018-03-12T04:44:03.292Z,971.8
2018-03-12T04:45:03.945Z,971.8
2018-03-12T04:46:04.602Z,971.8
2018-03-12T04:47:05.259Z,971.8
2018-03-12T04:48:05.912Z,971.8
2018-03-12T04:49:06.570Z,971.8
2018-03-12T04:50:07.261Z,971.8
2018-03-12T04:51:07.967Z,971.7
2018-03-12T04:52:08.618Z,971.7
2018-03-12T04:53:09.273Z,971.7
2018-03-12T04:54:09.977Z,971.7
2018-03-12T04:55:10.646Z,971.7
2018-03-12T04:56:11.290Z,971.7
2018-03-12T04:57:11.998Z,971.7
2018-03-12T04:58:12.649Z,971.7
2018-03-12T04:59:13.353Z,971.6
2018-03-12T05:00:14.010Z,971.7
2018-03-12T05:01:14.664Z,971.6
2018-03-12T05:02:15.321Z,971.6
2018-03-12T05:03:15.975Z,971.7
2018-03-12T05:04:16.631Z,971.6
2018-03-12T05:05:17.286Z,971.6
2018-03-12T05:06:17.942Z,971.6
2018-03-12T05:07:18.597Z,971.6
2018-03-12T05:08:19.288Z,971.6
2018-03-12T05:09:20.031Z,971.6
2018-03-12T05:10:20.689Z,971.7
2018-03-12T05:11:21.394Z,971.6
2018-03-12T05:12:22.049Z,971.6
2018-03-12T05:13:22.753Z,971.6
2018-03-12T05:14:23.409Z,971.6
2018-03-12T05:15:24.064Z,971.6
2018-03-12T05:16:24.721Z,971.6
2018-03-12T05:17:25.374Z,971.6
2018-03-12T05:18:26.030Z,971.6
2018-03-12T05:19:26.684Z,971.6
2018-03-12T05:20:27.341Z,971.6
2018-03-12T05:21:27.996Z,971.6
2018-03-12T05:22:28.700Z,971.6
2018-03-12T05:23:29.356Z,971.6
2018-03-12T05:24:30.017Z,971.6
2018-03-12T05:25:30.667Z,971.6
2018-03-12T05:26:31.322Z,971.6
2018-03-12T05:27:31.977Z,971.6
2018-03-12T05:28:32.632Z,971.6
2018-03-12T05:29:33.287Z,971.6
2018-03-12T05:30:33.993Z,971.6
2018-03-12T05:31:34.653Z,971.6
2018-03-12T05:32:35.304Z,971.6
2018-03-12T05:33:35.960Z,971.6
2018-03-12T05:34:36.617Z,971.6
2018-03-12T05:35:37.403Z,971.6
2018-03-12T05:36:38.018Z,971.6
2018-03-12T05:37:38.674Z,971.6
2018-03-12T05:38:39.329Z,971.6
2018-03-12T05:39:39.985Z,971.6
2018-03-12T05:40:40.641Z,971.5
2018-03-12T05:41:41.298Z,971.5
2018-03-12T05:42:41.955Z,971.6
2018-03-12T05:43:42.610Z,971.5
2018-03-12T05:44:43.267Z,971.6
2018-03-12T05:45:43.960Z,971.6
2018-03-12T05:46:44.617Z,971.6
2018-03-12T05:47:45.273Z,971.6
2018-03-12T05:48:45.930Z,971.6
2018-03-12T05:49:46.587Z,971.6
2018-03-12T05:50:47.243Z,971.6
2018-03-12T05:51:47.900Z,971.6
2018-03-12T05:52:48.556Z,971.5
2018-03-12T05:53:49.212Z,971.6
2018-03-12T05:54:49.870Z,971.6
2018-03-12T05:55:50.526Z,971.5
2018-03-12T05:56:51.183Z,971.6
2018-03-12T05:57:51.890Z,971.5
2018-03-12T05:58:52.596Z,971.6
2018-03-12T05:59:53.252Z,971.6
2018-03-12T06:00:53.911Z,971.5
2018-03-12T06:01:54.566Z,971.5
2018-03-12T06:02:55.275Z,971.6
2018-03-12T06:03:55.933Z,971.5
2018-03-12T06:04:56.639Z,971.5
2018-03-12T06:05:57.298Z,971.5
2018-03-12T06:06:57.956Z,971.5
2018-03-12T06:07:58.662Z,971.5
2018-03-12T06:08:59.319Z,971.5
2018-03-12T06:09:59.978Z,971.5
2018-03-12T06:11:00.632Z,971.5
2018-03-12T06:12:01.290Z,971.5
2018-03-12T06:13:01.948Z,971.5
2018-03-12T06:14:02.655Z,971.5
2018-03-12T06:15:03.311Z,971.5
2018-03-12T06:16:04.033Z,971.5
2018-03-12T06:17:04.626Z,971.5
2018-03-12T06:18:05.283Z,971.6
2018-03-12T06:19:05.940Z,971.5
2018-03-12T06:20:06.599Z,971.6
2018-03-12T06:21:07.342Z,971.5
2018-03-12T06:22:08.000Z,971.5
2018-03-12T06:23:08.657Z,971.5
2018-03-12T06:24:09.365Z,971.5
2018-03-12T06:25:10.020Z,971.5
2018-03-12T06:26:10.678Z,971.5
2018-03-12T06:27:11.334Z,971.5
2018-03-12T06:28:12.042Z,971.5
2018-03-12T06:29:12.696Z,971.5
2018-03-12T06:30:13.408Z,971.5
2018-03-12T06:31:14.010Z,971.5
2018-03-12T06:32:14.756Z,971.5
2018-03-12T06:33:15.464Z,971.5
2018-03-12T06:34:16.123Z,971.5
2018-03-12T06:35:16.779Z,971.5
2018-03-12T06:36:17.438Z,971.5
2018-03-12T06:37:18.155Z,971.5
2018-03-12T06:38:18.805Z,971.5
2018-03-12T06:39:19.462Z,971.6
2018-03-12T06:40:20.122Z,971.5
2018-03-12T06:41:20.786Z,971.5
2018-03-12T06:42:21.441Z,971.5
2018-03-12T06:43:22.100Z,971.5
2018-03-12T06:44:22.758Z,971.5
2018-03-12T06:45:23.419Z,971.5
2018-03-12T06:46:24.079Z,971.5
2018-03-12T06:47:24.734Z,971.5
2018-03-12T06:48:25.398Z,971.5
2018-03-12T06:49:26.052Z,971.6
2018-03-12T06:50:26.713Z,971.6
2018-03-12T06:51:27.369Z,971.5
2018-03-12T06:52:28.028Z,971.6
2018-03-12T06:53:28.741Z,971.5
2018-03-12T06:54:29.394Z,971.6
2018-03-12T06:55:30.090Z,971.6
2018-03-12T06:56:30.749Z,971.6
2018-03-12T06:57:31.409Z,971.6
2018-03-12T06:58:32.119Z,971.6
2018-03-12T06:59:32.774Z,971.5
2018-03-12T07:00:33.434Z,971.6
2018-03-12T07:01:34.091Z,971.6
2018-03-12T07:02:34.751Z,971.6
2018-03-12T07:03:35.411Z,971.6
2018-03-12T07:04:36.119Z,971.6
2018-03-12T07:05:36.776Z,971.6
2018-03-12T07:06:37.434Z,971.6
2018-03-12T07:07:38.093Z,971.6
2018-03-12T07:08:38.802Z,971.6
2018-03-12T07:09:39.461Z,971.6
2018-03-12T07:10:40.120Z,971.6
2018-03-12T07:11:40.780Z,971.6
2018-03-12T07:12:41.439Z,971.5
2018-03-12T07:13:42.098Z,971.6
2018-03-12T07:14:42.754Z,971.6
2018-03-12T07:15:43.413Z,971.6
2018-03-12T07:16:44.071Z,971.6
2018-03-12T07:17:44.729Z,971.6
2018-03-12T07:18:45.390Z,971.6
2018-03-12T07:19:46.050Z,971.6
2018-03-12T07:20:46.710Z,971.6
2018-03-12T07:21:47.369Z,971.6
2018-03-12T07:22:48.033Z,971.6
2018-03-12T07:23:48.766Z,971.6
2018-03-12T07:24:49.385Z,971.6
2018-03-12T07:25:50.099Z,971.6
2018-03-12T07:26:50.758Z,971.6
2018-03-12T07:27:51.417Z,971.6
2018-03-12T07:28:52.077Z,971.6
2018-03-12T07:29:52.736Z,971.6
2018-03-12T07:30:53.399Z,971.6
2018-03-12T07:31:54.058Z,971.6
2018-03-12T07:32:54.753Z,971.6
2018-03-12T07:33:55.415Z,971.5
2018-03-12T07:34:56.076Z,971.6
2018-03-12T07:35:56.738Z,971.6
2018-03-12T07:36:57.397Z,971.5
2018-03-12T07:37:58.055Z,971.6
2018-03-12T07:38:58.716Z,971.6
2018-03-12T07:39:59.377Z,971.6
2018-03-12T07:41:00.037Z,971.6
2018-03-12T07:42:00.748Z,971.5
2018-03-12T07:43:01.445Z,971.6
2018-03-12T07:44:02.106Z,971.6
2018-03-12T07:45:02.766Z,971.6
2018-03-12T07:46:03.425Z,971.6
2018-03-12T07:47:04.086Z,971.6
2018-03-12T07:48:04.746Z,971.6
2018-03-12T07:49:05.457Z,971.6
2018-03-12T07:50:06.122Z,971.6
2018-03-12T07:51:06.776Z,971.6
2018-03-12T07:52:07.437Z,971.6
2018-03-12T07:53:08.102Z,971.6
2018-03-12T07:54:08.870Z,971.6
2018-03-12T07:55:09.510Z,971.6
2018-03-12T07:56:10.164Z,971.6
2018-03-12T07:57:10.827Z,971.6
2018-03-12T07:58:11.488Z,971.6
2018-03-12T07:59:12.150Z,971.6
2018-03-12T08:00:12.808Z,971.6
2018-03-12T08:01:13.470Z,971.6
2018-03-12T08:02:14.130Z,971.6
2018-03-12T08:03:14.792Z,971.6
2018-03-12T08:04:15.452Z,971.6
2018-03-12T08:05:16.113Z,971.6
2018-03-12T08:06:16.823Z,971.6
2018-03-12T08:07:17.483Z,971.5
2018-03-12T08:08:18.145Z,971.5
2018-03-12T08:09:18.806Z,971.5
2018-03-12T08:10:19.516Z,971.5
2018-03-12T08:11:20.176Z,971.5
2018-03-12T08:12:20.836Z,971.5
2018-03-12T08:13:21.498Z,971.5
2018-03-12T08:14:22.158Z,971.5
2018-03-12T08:15:22.817Z,971.5
2018-03-12T08:16:23.498Z,971.5
2018-03-12T08:17:24.137Z,971.5
2018-03-12T08:18:24.799Z,971.5
2018-03-12T08:19:25.476Z,971.5
2018-03-12T08:20:26.157Z,971.5
2018-03-12T08:21:26.817Z,971.6
2018-03-12T08:22:27.478Z,971.5
2018-03-12T08:23:28.144Z,971.6
2018-03-12T08:24:28.799Z,971.6
2018-03-12T08:25:29.459Z,971.6
2018-03-12T08:26:30.169Z,971.6
2018-03-12T08:27:30.830Z,971.6
2018-03-12T08:28:31.491Z,971.6
2018-03-12T08:29:32.185Z,971.6
2018-03-12T08:30:32.814Z,971.6
2018-03-12T08:31:33.476Z,971.6
2018-03-12T08:32:34.174Z,971.6
2018-03-12T08:33:34.869Z,971.6
2018-03-12T08:34:35.532Z,971.6
2018-03-12T08:35:36.196Z,971.5
2018-03-12T08:36:36.908Z,971.6
2018-03-12T08:37:37.571Z,971.6
2018-03-12T08:38:38.262Z,971.6
2018-03-12T08:39:38.894Z,971.6
2018-03-12T08:40:39.604Z,971.5
2018-03-12T08:41:40.265Z,971.6
2018-03-12T08:42:40.925Z,971.6
2018-03-12T08:43:41.587Z,971.5
2018-03-12T08:44:42.284Z,971.6
2018-03-12T08:45:43.005Z,971.5
2018-03-12T08:46:43.610Z,971.5
2018-03-12T08:47:44.272Z,971.5
2018-03-12T08:48:44.935Z,971.5
2018-03-12T08:49:45.597Z,971.5
2018-03-12T08:50:46.259Z,971.5
2018-03-12T08:51:46.920Z,971.6
2018-03-12T08:52:47.582Z,971.5
2018-03-12T08:53:48.244Z,971.6
2018-03-12T08:54:48.903Z,971.5
2018-03-12T08:55:49.567Z,971.5
2018-03-12T08:56:50.229Z,971.5
2018-03-12T08:57:50.943Z,971.5
2018-03-12T08:58:51.609Z,971.5
2018-03-12T08:59:52.270Z,971.4
2018-03-12T09:00:52.930Z,971.5
2018-03-12T09:01:53.591Z,971.5
2018-03-12T09:02:54.259Z,971.4
2018-03-12T09:03:54.950Z,971.4
2018-03-12T09:04:55.612Z,971.4
2018-03-12T09:05:56.277Z,971.4
2018-03-12T09:06:56.941Z,971.4
2018-03-12T09:07:57.643Z,971.4
2018-03-12T09:08:58.356Z,971.4
2018-03-12T09:09:59.020Z,971.4
2018-03-12T09:10:59.680Z,971.4
2018-03-12T09:12:00.345Z,971.5
2018-03-12T09:13:01.002Z,971.4
2018-03-12T09:14:01.665Z,971.4
2018-03-12T09:15:02.325Z,971.5
2018-03-12T09:16:02.983Z,971.4
2018-03-12T09:17:03.646Z,971.4
2018-03-12T09:18:04.306Z,971.5
2018-03-12T09:19:04.966Z,971.5
2018-03-12T09:20:05.625Z,971.5
2018-03-12T09:21:06.286Z,971.5
2018-03-12T09:22:07.026Z,971.5
2018-03-12T09:23:07.657Z,971.5
2018-03-12T09:24:08.368Z,971.5
2018-03-12T09:25:09.079Z,971.5
2018-03-12T09:26:09.741Z,971.5
2018-03-12T09:27:10.402Z,971.5
2018-03-12T09:28:11.068Z,971.5
2018-03-12T09:29:11.776Z,971.5
2018-03-12T09:30:12.489Z,971.5
2018-03-12T09:31:13.150Z,971.5
2018-03-12T09:32:13.812Z,971.5
2018-03-12T09:33:14.501Z,971.5
2018-03-12T09:34:15.183Z,971.5
2018-03-12T09:35:15.845Z,971.5
2018-03-12T09:36:16.506Z,971.5
2018-03-12T09:37:17.166Z,971.5
2018-03-12T09:38:17.828Z,971.5
2018-03-12T09:39:18.488Z,971.5
2018-03-12T09:40:19.150Z,971.5
2018-03-12T09:41:19.813Z,971.5
2018-03-12T09:42:20.507Z,971.5
2018-03-12T09:43:21.167Z,971.6
2018-03-12T09:44:21.829Z,971.5
2018-03-12T09:45:22.493Z,971.6
2018-03-12T09:46:23.152Z,971.6
2018-03-12T09:47:23.812Z,971.6
2018-03-12T09:48:24.471Z,971.6
2018-03-12T09:49:25.133Z,971.5
2018-03-12T09:50:25.796Z,971.6
2018-03-12T09:51:26.452Z,971.6
2018-03-12T09:52:27.111Z,971.6
2018-03-12T09:53:27.786Z,971.5
2018-03-12T09:54:28.434Z,971.6
2018-03-12T09:55:29.094Z,971.6
2018-03-12T09:56:29.754Z,971.6
2018-03-12T09:57:30.466Z,971.6
2018-03-12T09:58:31.125Z,971.6
2018-03-12T09:59:31.785Z,971.6
2018-03-12T10:00:32.447Z,971.6
2018-03-12T10:01:33.108Z,971.6
2018-03-12T10:02:33.767Z,971.6
2018-03-12T10:03:34.428Z,971.6
2018-03-12T10:04:35.088Z,971.6
2018-03-12T10:05:35.752Z,971.7
2018-03-12T10:06:36.408Z,971.6
2018-03-12T10:07:37.075Z,971.6
2018-03-12T10:08:37.734Z,971.6
2018-03-12T10:09:38.395Z,971.7
2018-03-12T10:10:39.096Z,971.6
2018-03-12T10:11:39.715Z,971.6
2018-03-12T10:12:40.375Z,971.7
2018-03-12T10:13:41.073Z,971.6
2018-03-12T10:14:41.735Z,971.6
2018-03-12T10:15:42.397Z,971.6
2018-03-12T10:16:43.095Z,971.6
2018-03-12T10:17:43.757Z,971.6
2018-03-12T10:18:44.419Z,971.6
2018-03-12T10:19:45.082Z,971.6
2018-03-12T10:20:45.743Z,971.6
2018-03-12T10:21:46.406Z,971.6
2018-03-12T10:22:47.068Z,971.6
2018-03-12T10:23:47.732Z,971.6
2018-03-12T10:24:48.394Z,971.7
2018-03-12T10:25:49.064Z,971.6
2018-03-12T10:26:49.716Z,971.6
2018-03-12T10:27:50.378Z,971.6
2018-03-12T10:28:51.040Z,971.6
2018-03-12T10:29:51.704Z,971.6
2018-03-12T10:30:52.365Z,971.6
2018-03-12T10:31:53.029Z,971.6
2018-03-12T10:32:53.691Z,971.6
2018-03-12T10:33:54.354Z,971.7
2018-03-12T10:34:55.015Z,971.6
2018-03-12T10:35:55.676Z,971.6
2018-03-12T10:36:56.337Z,971.6
2018-03-12T10:37:56.998Z,971.7
2018-03-12T10:38:57.696Z,971.6
2018-03-12T10:39:58.359Z,971.6
2018-03-12T10:40:59.022Z,971.6
2018-03-12T10:41:59.683Z,971.6
2018-03-12T10:43:00.386Z,971.6
2018-03-12T10:44:01.006Z,971.7
2018-03-12T10:45:01.703Z,971.7
2018-03-12T10:46:02.366Z,971.7
2018-03-12T10:47:03.029Z,971.7
2018-03-12T10:48:03.693Z,971.7
2018-03-12T10:49:04.407Z,971.7
2018-03-12T10:50:05.070Z,971.7
2018-03-12T10:51:05.733Z,971.7
2018-03-12T10:52:06.395Z,971.7
2018-03-12T10:53:07.057Z,971.7
2018-03-12T10:54:07.767Z,971.7
2018-03-12T10:55:08.427Z,971.7
2018-03-12T10:56:09.138Z,971.7
2018-03-12T10:57:09.798Z,971.7
2018-03-12T10:58:10.460Z,971.7
2018-03-12T10:59:11.120Z,971.7
2018-03-12T11:00:11.820Z,971.7
2018-03-12T11:01:12.564Z,971.7
2018-03-12T11:02:13.225Z,971.7
2018-03-12T11:03:13.923Z,971.7
2018-03-12T11:04:14.583Z,971.7
2018-03-12T11:05:15.246Z,971.7
2018-03-12T11:06:15.909Z,971.7
2018-03-12T11:07:16.573Z,971.7
2018-03-12T11:08:17.284Z,971.7
2018-03-12T11:09:17.944Z,971.7
2018-03-12T11:10:18.605Z,971.7
2018-03-12T11:11:19.265Z,971.7
2018-03-12T11:12:19.928Z,971.7
2018-03-12T11:13:20.588Z,971.7
2018-03-12T11:14:21.250Z,971.7
2018-03-12T11:15:21.912Z,971.8
2018-03-12T11:16:22.614Z,971.7
2018-03-12T11:17:23.362Z,971.7
2018-03-12T11:18:24.021Z,971.7
2018-03-12T11:19:24.684Z,971.7
2018-03-12T11:20:25.351Z,971.7
2018-03-12T11:21:26.005Z,971.7
2018-03-12T11:22:26.669Z,971.7
2018-03-12T11:23:27.332Z,971.7
2018-03-12T11:24:27.996Z,971.7
2018-03-12T11:25:28.657Z,971.7
2018-03-12T11:26:29.318Z,971.7
2018-03-12T11:27:29.980Z,971.7
2018-03-12T11:28:30.642Z,971.7
2018-03-12T11:29:31.303Z,971.7
2018-03-12T11:30:32.002Z,971.7
2018-03-12T11:31:32.664Z,971.7
2018-03-12T11:32:33.375Z,971.7
2018-03-12T11:33:34.035Z,971.7
2018-03-12T11:34:34.695Z,971.6
2018-03-12T11:35:35.405Z,971.7
2018-03-12T11:36:36.067Z,971.7
2018-03-12T11:37:36.730Z,971.7
2018-03-12T11:38:37.391Z,971.7
2018-03-12T11:39:38.102Z,971.7
2018-03-12T11:40:38.822Z,971.7
2018-03-12T11:41:39.476Z,971.7
2018-03-12T11:42:40.139Z,971.7
2018-03-12T11:43:40.799Z,971.7
2018-03-12T11:44:41.462Z,971.7
2018-03-12T11:45:42.123Z,971.7
2018-03-12T11:46:42.783Z,971.7
2018-03-12T11:47:43.444Z,971.8
2018-03-12T11:48:44.141Z,971.7
2018-03-12T11:49:44.842Z,971.7
2018-03-12T11:50:45.502Z,971.8
2018-03-12T11:51:46.162Z,971.7
2018-03-12T11:52:46.822Z,971.7
2018-03-12T11:53:47.532Z,971.8
2018-03-12T11:54:48.192Z,971.7
2018-03-12T11:55:48.852Z,971.7
2018-03-12T11:56:49.514Z,971.7
2018-03-12T11:57:50.175Z,971.7
2018-03-12T11:58:50.834Z,971.7
2018-03-12T11:59:51.496Z,971.7
2018-03-12T12:00:52.156Z,971.7
2018-03-12T12:01:52.815Z,971.7
2018-03-12T12:02:53.476Z,971.7
2018-03-12T12:03:54.139Z,971.7
2018-03-12T12:04:54.798Z,971.8
2018-03-12T12:05:55.458Z,971.7
2018-03-12T12:06:56.118Z,971.8
2018-03-12T12:07:56.828Z,971.8
2018-03-12T12:08:57.490Z,971.8
2018-03-12T12:09:58.150Z,971.8
2018-03-12T12:10:58.810Z,971.8
2018-03-12T12:11:59.475Z,971.8
2018-03-12T12:13:00.132Z,971.8
2018-03-12T12:14:00.790Z,971.9
2018-03-12T12:15:01.452Z,971.8
2018-03-12T12:16:02.112Z,971.8
2018-03-12T12:17:02.772Z,971.9
2018-03-12T12:18:03.433Z,971.8
2018-03-12T12:19:04.093Z,971.9
2018-03-12T12:20:04.755Z,971.9
2018-03-12T12:21:05.415Z,971.8
2018-03-12T12:22:06.077Z,971.8
2018-03-12T12:23:06.739Z,971.8
2018-03-12T12:24:07.400Z,971.8
2018-03-12T12:25:08.060Z,971.8
2018-03-12T12:26:08.723Z,971.8
2018-03-12T12:27:09.421Z,971.8
2018-03-12T12:28:10.130Z,971.8
2018-03-12T12:29:10.789Z,971.8
2018-03-12T12:30:11.450Z,971.8
2018-03-12T12:31:12.110Z,971.8
2018-03-12T12:32:12.770Z,971.8
2018-03-12T12:33:13.431Z,971.8
2018-03-12T12:34:14.092Z,971.8
2018-03-12T12:35:14.753Z,971.8
2018-03-12T12:36:15.463Z,971.8
2018-03-12T12:37:16.122Z,971.8
2018-03-12T12:38:16.782Z,971.8
2018-03-12T12:39:17.443Z,971.8
2018-03-12T12:40:18.101Z,971.8
2018-03-12T12:41:18.765Z,971.8
2018-03-12T12:42:19.459Z,971.8
2018-03-12T12:43:20.170Z,971.8
2018-03-12T12:44:20.834Z,971.8
2018-03-12T12:45:21.492Z,971.9
2018-03-12T12:46:22.203Z,971.8
2018-03-12T12:47:22.898Z,971.8
2018-03-12T12:48:23.558Z,971.8
2018-03-12T12:49:24.219Z,971.8
2018-03-12T12:50:24.898Z,971.8
2018-03-12T12:51:25.546Z,971.9
2018-03-12T12:52:26.206Z,971.8
2018-03-12T12:53:26.867Z,971.9
2018-03-12T12:54:27.527Z,971.9
2018-03-12T12:55:28.224Z,971.9
2018-03-12T12:56:28.886Z,971.9
2018-03-12T12:57:29.590Z,971.9
2018-03-12T12:58:30.259Z,971.9
2018-03-12T12:59:30.971Z,971.9
2018-03-12T13:00:31.683Z,971.9
2018-03-12T13:01:32.343Z,971.9